28 de setembro de 2022

Hora Código Clima Temp. Visibilidade Tecto Vento METAR/SPECI
13:30
M
14 °C 10 km+ 1.600 ft 270° 270° 11 kt METAR LFLW 281130Z AUTO 27011KT 9999 -RA BKN016/// BKN030/// OVC040/// ///TCU 14/12 Q1005 TEMPO 27020G30KT 2000 RA BKN006 SCT015TCU
13:00
M
14 °C 10 km+ 1.400 ft 280° 280° 10 kt METAR LFLW 281100Z AUTO 28010KT 250V340 9999 BKN014 BKN033 BKN052 14/12 Q1006 TEMPO 27020G30KT 2000 RA BKN006 SCT015TCU
12:30
M
14 °C 10 km+ 1.200 ft 270° 270° 10 kt METAR LFLW 281030Z AUTO 27010KT 240V320 9999 FEW008 BKN012 BKN017 14/13 Q1006 TEMPO 27020G30KT 2000 RA BKN006 SCT015TCU
12:00
M
13 °C 10 km+ 1.100 ft 280° 280° 10 kt METAR LFLW 281000Z AUTO 28010KT 250V330 9999 BKN011 OVC016 13/12 Q1006 TEMPO 27020G30KT 2000 RA BKN006 SCT015TCU
11:30
M
14 °C 10 km+ 1.100 ft 270° 270° 12 kt METAR LFLW 280930Z AUTO 27012KT 240V300 9999 BKN011 BKN018 OVC027 14/11 Q1007 TEMPO 27020G30KT 2000 RA BKN006 SCT015TCU
11:00
I
13 °C 10 km+ 900 ft 280° 280° 10 kt METAR LFLW 280900Z AUTO 28010KT 250V330 9999 OVC009 13/12 Q1006 TEMPO 27020G30KT 2000 RA BKN006 SCT015TCU
10:30
I
12 °C 10 km+ 800 ft 290° 290° 10 kt METAR LFLW 280830Z AUTO 29010KT 260V340 9999 BKN008/// OVC016/// ///TCU 12/11 Q1007 TEMPO 27020G30KT 2000 RA
10:00
I
12 °C 3,3 km 700 ft 260° 260° 8 kt METAR LFLW 280800Z AUTO 26008KT 230V300 3300 RA BR BKN007/// OVC017/// ///CB 12/12 Q1006 TEMPO 27020G30KT
09:30
I
12 °C 7 km 700 ft 250° 250° 10 kt METAR LFLW 280730Z AUTO 25010KT 220V280 7000 -RA BKN007/// OVC012/// ///CB 12/12 Q1006 TEMPO 27020G30KT 3000 RA
09:00
I
12 °C 4,8 km 700 ft 250° 250° 8 kt METAR LFLW 280700Z AUTO 25008KT 220V300 4800 DZ BR BKN007 OVC012 12/12 Q1006 TEMPO 28020G30KT 2000 RA BKN005 SCT030TCU
08:30
M
12 °C 10 km+ 1.100 ft 260° 260° 10 kt METAR LFLW 280630Z AUTO 26010KT 230V300 9999 SCT006 OVC011 12/12 Q1006 TEMPO 28020G30KT 2000 RA BKN005 SCT030TCU
08:00
I
12 °C 10 km+ 600 ft 270° 270° 9 kt METAR LFLW 280600Z AUTO 27009KT 240V300 9999 BKN006 BKN010 OVC016 12/12 Q1007 TEMPO 28020G30KT 2000 RA BKN005 SCT030TCU
07:30
I
12 °C 7 km 500 ft 260° 260° 9 kt METAR LFLW 280530Z AUTO 26009KT 230V300 7000 -DZ OVC005 12/12 Q1007 TEMPO 28020G30KT 2000 RA BKN005 SCT030TCU
07:00
I
12 °C 10 km+ 500 ft 280° 280° 9 kt METAR LFLW 280500Z AUTO 28009KT 250V330 9999 OVC005 12/12 Q1007
06:30
I
13 °C 5 km 500 ft 280° 280° 8 kt METAR LFLW 280430Z AUTO 28008KT 240V320 5000 -RADZ BR OVC005 13/12 Q1007
06:00
I
13 °C 5 km 600 ft 280° 280° 9 kt METAR LFLW 280400Z AUTO 28009KT 250V310 5000 -DZ BR OVC006/// ///TCU 13/12 Q1007
05:30
I
13 °C 6 km 600 ft 270° 270° 10 kt METAR LFLW 280330Z AUTO 27010KT 240V300 6000 -DZ OVC006/// ///TCU 13/12 Q1007
05:00
I
13 °C 10 km+ 800 ft 280° 280° 11 - 22 kt METAR LFLW 280300Z AUTO 28011G22KT 250V320 9999 BKN008/// OVC012/// ///TCU 13/12 Q1007
04:30
I
13 °C 10 km+ 700 ft 270° 270° 13 - 23 kt METAR LFLW 280230Z AUTO 27013G23KT 250V310 9999 BKN007/// OVC012/// ///TCU 13/12 Q1007
04:00
I
13 °C 7 km 600 ft 270° 270° 11 kt METAR LFLW 280200Z AUTO 27011KT 230V300 7000 -DZ OVC006/// ///TCU 13/12 Q1007
03:30
I
13 °C 6 km 600 ft 260° 260° 9 kt METAR LFLW 280130Z AUTO 26009KT 240V300 6000 -RA OVC006/// ///TCU 13/12 Q1008
03:00
I
12 °C 3,8 km 600 ft 260° 260° 7 kt METAR LFLW 280100Z AUTO 26007KT 230V290 3800 -RA BR BKN006/// OVC010/// ///TCU 12/12 Q1008
02:30
I
12 °C 9 km 700 ft 250° 250° 9 kt METAR LFLW 280030Z AUTO 25009KT 220V290 9000 -RA OVC007/// ///TCU 12/12 Q1008
02:00
I
12 °C 5 km 700 ft 250° 250° 7 kt METAR LFLW 280000Z AUTO 25007KT 210V300 5000 DZ BR OVC007 12/12 Q1008
01:30
I
12 °C 5 km 700 ft 240° 240° 8 kt METAR LFLW 272330Z AUTO 24008KT 210V270 5000 -RA BR OVC007/// ///TCU 12/11 Q1009
01:00
I
12 °C 7 km 700 ft 250° 250° 9 kt METAR LFLW 272300Z AUTO 25009KT 220V280 7000 +DZ OVC007/// ///TCU 12/11 Q1009
00:30
I
11 °C 6 km 700 ft 240° 240° 7 kt METAR LFLW 272230Z AUTO 24007KT 210V270 6000 -RA BKN007 OVC011 11/11 Q1010
00:00
I
11 °C 4,1 km 700 ft 240° 240° 7 kt METAR LFLW 272200Z AUTO 24007KT 4100 -RA BR OVC007/// ///TCU 11/11 Q1010

27 de setembro de 2022

Hora Código Clima Temp. Visibilidade Tecto Vento METAR/SPECI
23:30
I
11 °C 5 km 700 ft 240° 240° 6 kt METAR LFLW 272130Z AUTO 24006KT 200V280 5000 -RA BR OVC007/// ///TCU 11/11 Q1011
23:00
I
11 °C 5 km 600 ft 250° 250° 5 kt METAR LFLW 272100Z AUTO 25005KT 210V290 5000 -RA BR OVC006 11/10 Q1011
22:30
I
10 °C 5 km 600 ft 260° 260° 7 kt METAR LFLW 272030Z AUTO 26007KT 5000 -RA BR BKN006 BKN011 OVC016 10/10 Q1011
22:00
L
10 °C 5 km 400 ft 280° 280° 5 kt METAR LFLW 272000Z AUTO 28005KT 230V320 5000 -RA BR OVC004 10/10 Q1012
21:30
I
11 °C 5 km 500 ft 270° 270° 4 kt METAR LFLW 271930Z AUTO 27004KT 240V320 5000 -DZ BR OVC005 11/10 Q1012
21:00
I
11 °C 5 km 700 ft 270° 270° 7 kt METAR LFLW 271900Z AUTO 27007KT 240V300 5000 -DZ BR BKN007 OVC011 11/10 Q1012
20:30
I
11 °C 8 km 800 ft 260° 260° 6 kt METAR LFLW 271830Z AUTO 26006KT 230V300 8000 -RADZ OVC008 11/10 Q1012
20:00
I
10 °C 10 km+ 800 ft 250° 250° 4 kt METAR LFLW 271800Z AUTO 25004KT 210V300 9999 OVC008 10/10 Q1012
19:30
M
11 °C 10 km+ 1.000 ft 280° 280° 5 kt METAR LFLW 271730Z AUTO 28005KT 250V310 9999 OVC010 11/09 Q1012
19:00
M
11 °C 10 km+ 2.200 ft 280° 280° 6 kt METAR LFLW 271700Z AUTO 28006KT 240V320 9999 FEW006 SCT011 BKN022 11/09 Q1012 TEMPO SCT023TCU BECMG 4000 RA
18:30
I
10 °C 10 km+ 700 ft 280° 280° 6 kt METAR LFLW 271630Z AUTO 28006KT 230V320 9999 OVC007 10/10 Q1012 TEMPO SCT023TCU BECMG 4000 RA
18:00
I
10 °C 4,6 km 1.200 ft 270° 270° 6 kt METAR LFLW 271600Z AUTO 27006KT 240V310 4600 -DZ BR BKN012 OVC018 10/09 Q1012 TEMPO SCT023TCU BECMG 9999 NSW
17:30
M
11 °C 10 km+ 1.200 ft 270° 270° 7 kt METAR LFLW 271530Z AUTO 27007KT 230V320 9999 BKN012 BKN019 OVC025 11/08 Q1012 TEMPO SHRA SCT023TCU
17:00
M
11 °C 10 km+ 1.200 ft 270° 270° 5 kt METAR LFLW 271500Z AUTO 27005KT 230V300 9999 BKN012 OVC019 11/09 Q1012 TEMPO SHRA SCT023TCU
16:30
M
11 °C 10 km+ 1.200 ft 280° 280° 7 kt METAR LFLW 271430Z AUTO 28007KT 250V310 9999 BKN012 BKN026 BKN033 11/08 Q1012 TEMPO SHRA SCT023TCU
16:00
M
10 °C 10 km+ 1.900 ft 270° 270° 11 kt METAR LFLW 271400Z AUTO 27011KT 230V290 9999 -RA FEW013 BKN019 BKN025 10/08 Q1012 TEMPO SHRA SCT023TCU
15:30
M
11 °C 10 km+ 2.400 ft 280° 280° 8 kt METAR LFLW 271330Z AUTO 28008KT 230V320 9999 BKN024 OVC031 11/07 Q1012 TEMPO SHRA SCT023TCU
15:00
M
11 °C 10 km+ 2.900 ft 280° 280° 7 kt METAR LFLW 271300Z AUTO 28007KT 250V320 9999 SCT023 BKN029 BKN034 11/07 Q1012 TEMPO SHRA SCT023TCU
14:30
V
11 °C 10 km+ 3.800 ft 270° 270° 9 kt METAR LFLW 271230Z AUTO 27009KT 230V310 9999 SCT029 OVC038 11/06 Q1012 TEMPO SHRA SCT023TCU
14:00
V
11 °C 10 km+ 3.900 ft 290° 290° 8 kt METAR LFLW 271200Z AUTO 29008KT 250V330 9999 SCT031 BKN039 OVC045 11/05 Q1012 TEMPO SHRA SCT023TCU
13:30
V
11 °C 10 km+ 3.300 ft 270° 270° 11 kt METAR LFLW 271130Z AUTO 27011KT 240V310 9999 FEW019 SCT025 BKN033 11/06 Q1012 TEMPO SHRA SCT023TCU
13:00
M
11 °C 10 km+ 2.400 ft 280° 280° 9 kt METAR LFLW 271100Z AUTO 28009KT 240V320 9999 SCT019 BKN024 OVC043 11/06 Q1013 TEMPO SHRA SCT023TCU
12:00
M
10 °C 10 km+ 2.100 ft 270° 270° 12 kt METAR LFLW 271000Z AUTO 27012KT 230V300 9999 SCT016 BKN021 BKN028 10/07 Q1012 NOSIG
11:30
V
10 °C 10 km+ 3.200 ft 260° 260° 8 kt METAR LFLW 270930Z AUTO 26008KT 220V320 9999 SCT015 BKN032 OVC045 10/07 Q1012 NOSIG
11:00
M
10 °C 10 km+ 1.300 ft 280° 280° 8 kt METAR LFLW 270900Z AUTO 28008KT 250V320 9999 BKN013 BKN019 OVC046 10/07 Q1012 BECMG BKN025
10:30
M
10 °C 10 km+ 1.300 ft 280° 280° 7 kt METAR LFLW 270830Z AUTO 28007KT 240V320 9999 FEW009 BKN013 BKN020 10/08 Q1012 BECMG BKN025
10:00
M
10 °C 10 km+ 1.000 ft 280° 280° 8 kt METAR LFLW 270800Z AUTO 28008KT 240V320 9999 BKN010 BKN019 OVC046 10/08 Q1012 BECMG BKN025
09:30
I
10 °C 10 km+ 700 ft 290° 290° 6 kt METAR LFLW 270730Z AUTO 29006KT 250V320 9999 BKN007 BKN013 OVC019 10/08 Q1011 BECMG BKN025
09:00
I
9 °C 10 km+ 500 ft 280° 280° 6 kt METAR LFLW 270700Z AUTO 28006KT 250V330 9999 OVC005 09/08 Q1011 NOSIG
08:30
I
9 °C 10 km+ 500 ft 290° 290° 6 kt METAR LFLW 270630Z AUTO 29006KT 240V340 9999 BKN005 BKN010 OVC027 09/08 Q1011 NOSIG
08:00
M
8 °C 10 km+ 1.400 ft 290° 290° 5 kt METAR LFLW 270600Z AUTO 29005KT 250V330 9999 SCT008 BKN014 OVC049 08/08 Q1011 TEMPO BKN007
07:30
V
8 °C 10 km+ 4.900 ft 280° 280° 4 kt METAR LFLW 270530Z AUTO 28004KT 240V330 9999 FEW007 SCT011 OVC049 08/07 Q1011 TEMPO BKN007
07:00
V
9 °C 10 km+ 4.800 ft 310° 310° 7 kt METAR LFLW 270500Z AUTO 31007KT 270V340 9999 FEW008 OVC048 09/08 Q1010
06:30
I
9 °C 10 km+ 800 ft 300° 300° 6 kt METAR LFLW 270430Z AUTO 30006KT 260V330 9999 BKN008 OVC043 09/08 Q1010
06:00
I
9 °C 10 km+ 900 ft 300° 300° 6 kt METAR LFLW 270400Z AUTO 30006KT 260V330 9999 OVC009 09/08 Q1010
05:30
I
9 °C 10 km+ 900 ft 300° 300° 6 kt METAR LFLW 270330Z AUTO 30006KT 250V330 9999 BKN009 BKN016 OVC047 09/08 Q1010
05:00
M
9 °C 10 km+ 1.000 ft 300° 300° 7 kt METAR LFLW 270300Z AUTO 30007KT 270V340 9999 BKN010 BKN018 OVC045 09/08 Q1009
04:30
M
10 °C 10 km+ 1.400 ft 310° 310° 7 kt METAR LFLW 270230Z AUTO 31007KT 260V340 9999 SCT007 BKN014 BKN020 10/08 Q1009
04:00
I
10 °C 10 km+ 700 ft 300° 300° 4 kt METAR LFLW 270200Z AUTO 30004KT 260V340 9999 OVC007 10/10 Q1009
03:30
I
10 °C 10 km+ 700 ft 290° 290° 8 kt METAR LFLW 270130Z AUTO 29008KT 250V330 9999 BKN007 OVC012 10/10 Q1009
03:00
M
10 °C 10 km+ 1.300 ft 270° 270° 8 kt METAR LFLW 270100Z AUTO 27008KT 230V320 9999 SCT009 BKN013 BKN020 10/09 Q1009
02:30
M
10 °C 10 km+ 1.900 ft 270° 270° 7 kt METAR LFLW 270030Z AUTO 27007KT 230V300 9999 FEW008 SCT012 BKN019 10/09 Q1009
02:00
M
11 °C 10 km+ 1.000 ft 270° 270° 8 kt METAR LFLW 270000Z AUTO 27008KT 230V320 9999 BKN010 BKN014 BKN023 11/10 Q1009
01:30
I
11 °C 10 km+ 800 ft 260° 260° 8 kt METAR LFLW 262330Z AUTO 26008KT 9999 -DZ BKN008 BKN014 BKN021 11/10 Q1009
01:00
I
10 °C 8 km 800 ft 250° 250° 8 kt METAR LFLW 262300Z AUTO 25008KT 8000 -RADZ BKN008 OVC013 10/10 Q1009
00:30
I
10 °C 4,2 km 600 ft 250° 250° 6 kt METAR LFLW 262230Z AUTO 25006KT 4200 -RA BR OVC006 10/09 Q1010
00:00
I
10 °C 5 km 900 ft 240° 240° 6 kt METAR LFLW 262200Z AUTO 24006KT 180V270 5000 -RA BR OVC009/// ///TCU 10/09 Q1010

26 de setembro de 2022

Hora Código Clima Temp. Visibilidade Tecto Vento METAR/SPECI
23:30
M
10 °C 10 km+ 2.700 ft 240° 240° 5 kt METAR LFLW 262130Z AUTO 24005KT 200V280 9999 -RA FEW014/// SCT020/// BKN027/// ///CB 10/09 Q1010
23:00
M
11 °C 10 km+ 2.400 ft 250° 250° 6 kt METAR LFLW 262100Z AUTO 25006KT 230V310 9999 -RA FEW017/// OVC024/// ///TCU 11/09 Q1011
22:30
M
11 °C 10 km+ 2.800 ft 250° 250° 8 kt METAR LFLW 262030Z AUTO 25008KT 220V290 9999 -RA FEW021/// BKN028/// OVC035/// ///TCU 11/08 Q1011
22:00
V
13 °C 10 km+ 3.800 ft 260° 260° 11 kt METAR LFLW 262000Z AUTO 26011KT 220V290 9999 FEW030/// BKN038/// BKN045/// ///TCU 13/07 Q1011
21:30
V
13 °C 10 km+ 7.800 ft 240° 240° 6 kt METAR LFLW 261930Z AUTO 24006KT 200V270 9999 FEW032 SCT068 BKN078 13/07 Q1011
21:00
V
13 °C 10 km+ 7.000 ft 240° 240° 5 kt METAR LFLW 261900Z AUTO 24005KT 9999 FEW040 OVC070 13/07 Q1011
20:30
V
13 °C 10 km+ 6.000 ft 250° 250° 5 kt METAR LFLW 261830Z AUTO 25005KT 210V280 9999 FEW038 SCT049 BKN060 13/07 Q1011
20:00
V
13 °C 10 km+ 6.400 ft 240° 240° 6 kt METAR LFLW 261800Z AUTO 24006KT 210V280 9999 FEW045 BKN064 OVC082 13/07 Q1011
19:30
V
13 °C 10 km+ 6.000 ft 260° 260° 7 kt METAR LFLW 261730Z AUTO 26007KT 230V300 9999 FEW037 SCT046 BKN060 13/07 Q1011
19:00
V
13 °C 10 km+ 4.200 ft 260° 260° 8 kt METAR LFLW 261700Z AUTO 26008KT 230V290 9999 SCT035 BKN042 BKN058 13/07 Q1011 TEMPO 4000 RA
18:30
V
14 °C 10 km+ 6.200 ft 270° 270° 8 kt METAR LFLW 261630Z AUTO 27008KT 9999 FEW034 BKN062 BKN110 14/07 Q1011 TEMPO 4000 RA
18:00
V
14 °C 10 km+ 4.600 ft 270° 270° 7 kt METAR LFLW 261600Z AUTO 27007KT 240V330 9999 SCT035 BKN046 BKN062 14/07 Q1012 NOSIG
17:30
V
14 °C 10 km+ 5.600 ft 280° 280° 8 kt METAR LFLW 261530Z AUTO 28008KT 240V330 9999 SCT037 SCT047 BKN056 14/06 Q1012 NOSIG
17:00
V
14 °C 10 km+ 3.600 ft 280° 280° 7 kt METAR LFLW 261500Z AUTO 28007KT 230V320 9999 BKN036 BKN043 OVC058 14/06 Q1012 NOSIG
16:30
V
14 °C 10 km+ 3.500 ft 260° 260° 9 kt METAR LFLW 261430Z AUTO 26009KT 230V310 9999 BKN035 BKN047 OVC058 14/07 Q1012 NOSIG
16:00
V
14 °C 10 km+ 5.600 ft 280° 280° 8 kt METAR LFLW 261400Z AUTO 28008KT 250V330 9999 FEW034 SCT049 BKN056 14/06 Q1012 NOSIG
15:30
V
14 °C 10 km+ 4.200 ft 280° 280° 9 kt METAR LFLW 261330Z AUTO 28009KT 240V320 9999 SCT031 BKN042 OVC052 14/06 Q1012 NOSIG
15:00
V
14 °C 10 km+ 5.600 ft 280° 280° 7 kt METAR LFLW 261300Z AUTO 28007KT 240V320 9999 FEW031 SCT044 BKN056 14/07 Q1013 NOSIG
14:30
V
14 °C 10 km+ 11.000 ft 270° 270° 8 kt METAR LFLW 261230Z AUTO 27008KT 230V320 9999 SCT056 OVC110 14/07 Q1013 NOSIG
14:00
M
13 °C 10 km+ 2.500 ft 290° 290° 6 kt METAR LFLW 261200Z AUTO 29006KT 250V350 9999 BKN025 OVC033 13/07 Q1013 NOSIG
Dados mais antigos

Nós e terceiros acompanhamos seu comportamento na internet em nosso site com cookies. Se você continuar, nós assumimos que você concorda com nossa política de cookies. Saiba mais